Time;durP1;ratioP1;P1;durP2;ratioP2;P2;SDS_P1;SDS_P2;PMS_P1;PMS_P2;Temp;Humidity;BMP_temperature;BMP_pressure;BME280_temperature;BME280_humidity;BME280_pressure;Samples;Min_cycle;Max_cycle;Signal;HPM_P1;HPM_P2
2021/12/30 00:00:50;;;;;;;24.73;10.10;;;12.00;87.80;;;;;;5072899;28;20040;-74
2021/12/30 00:03:16;;;;;;;25.42;9.70;;;12.00;87.90;;;;;;5073330;28;20036;-75
2021/12/30 00:05:42;;;;;;;24.33;9.50;;;12.00;87.90;;;;;;5072759;28;20059;-75
2021/12/30 00:08:08;;;;;;;24.52;9.90;;;12.00;87.90;;;;;;5073191;28;20066;-76
2021/12/30 00:10:34;;;;;;;22.27;9.13;;;12.00;88.00;;;;;;5055995;28;20031;-75
2021/12/30 00:13:00;;;;;;;25.67;11.38;;;12.00;88.00;;;;;;5056892;28;20394;-75
2021/12/30 00:15:26;;;;;;;26.95;11.57;;;12.00;88.00;;;;;;5072603;28;20094;-75
2021/12/30 00:17:52;;;;;;;24.73;10.35;;;12.00;88.00;;;;;;5074250;28;20021;-75
2021/12/30 00:20:18;;;;;;;23.80;10.45;;;12.00;88.00;;;;;;5073964;28;20116;-75
2021/12/30 00:22:44;;;;;;;22.20;11.15;;;12.00;88.10;;;;;;5073352;28;20028;-75
2021/12/30 00:25:12;;;;;;;23.73;10.32;;;12.00;88.10;;;;;;5055836;28;20514;-75
2021/12/30 00:27:38;;;;;;;22.50;11.10;;;12.00;88.10;;;;;;5074164;28;20100;-75
2021/12/30 00:30:07;;;;;;;25.25;11.43;;;12.10;88.10;;;;;;5072914;28;20017;-75
2021/12/30 00:32:32;;;;;;;22.52;10.38;;;12.10;88.20;;;;;;5072757;28;20056;-75
2021/12/30 00:34:58;;;;;;;28.98;12.02;;;12.10;88.20;;;;;;5071977;28;20118;-75
2021/12/30 00:37:24;;;;;;;25.40;11.40;;;12.10;88.20;;;;;;5073832;28;20082;-75
2021/12/30 00:39:50;;;;;;;22.40;10.65;;;12.10;88.20;;;;;;5055046;28;20025;-75
2021/12/30 00:42:15;;;;;;;30.10;11.65;;;12.10;88.20;;;;;;5073143;28;20440;-75
2021/12/30 00:44:41;;;;;;;25.10;10.80;;;12.20;88.20;;;;;;5071764;28;20032;-75
2021/12/30 00:47:07;;;;;;;24.73;10.73;;;12.20;88.30;;;;;;5056336;28;20032;-75
2021/12/30 00:49:32;;;;;;;23.13;10.00;;;12.20;88.20;;;;;;5072424;28;20029;-76
2021/12/30 00:51:58;;;;;;;24.67;10.38;;;12.20;88.20;;;;;;5056007;28;20025;-75
2021/12/30 00:54:24;;;;;;;23.00;10.48;;;12.30;88.90;;;;;;5051323;28;20067;-75
2021/12/30 00:56:50;;;;;;;24.15;9.93;;;12.30;88.20;;;;;;5072663;28;20033;-75
2021/12/30 00:59:16;;;;;;;22.15;9.05;;;12.30;88.20;;;;;;5056125;28;20032;-75
2021/12/30 01:01:42;;;;;;;24.77;9.52;;;12.30;88.20;;;;;;5056080;28;20086;-75
2021/12/30 01:04:08;;;;;;;20.60;9.68;;;12.30;88.20;;;;;;5072473;28;20047;-75
2021/12/30 01:06:33;;;;;;;25.65;10.00;;;12.30;88.20;;;;;;5072458;28;20033;-75
2021/12/30 01:09:00;;;;;;;22.90;8.77;;;12.30;88.80;;;;;;5067391;28;20060;-75
2021/12/30 01:11:26;;;;;;;22.17;7.85;;;12.30;88.20;;;;;;5071678;28;20056;-75
2021/12/30 01:14:02;;;;;;;23.63;9.30;;;12.40;88.30;;;;;;5059133;28;20442;-75
2021/12/30 01:16:30;;;;;;;25.60;8.02;;;12.40;88.30;;;;;;5059421;28;20480;-75
2021/12/30 01:21:42;;;;;;;26.48;7.65;;;12.40;88.20;;;;;;5076437;28;20043;-75
2021/12/30 01:24:08;;;;;;;23.10;8.32;;;12.40;88.30;;;;;;5075458;28;20062;-75
2021/12/30 01:26:33;;;;;;;21.88;8.00;;;12.40;88.30;;;;;;5075422;28;20417;-75
2021/12/30 01:28:59;;;;;;;21.13;7.40;;;12.50;88.30;;;;;;5076022;28;20033;-75
2021/12/30 01:31:25;;;;;;;20.42;6.90;;;12.50;88.30;;;;;;5075415;28;20040;-75
2021/12/30 01:33:54;;;;;;;23.10;6.18;;;12.50;88.30;;;;;;5059190;28;20071;-75
2021/12/30 01:36:21;;;;;;;22.45;6.82;;;12.50;88.40;;;;;;5059396;28;20035;-75
2021/12/30 01:38:47;;;;;;;20.63;7.03;;;12.50;88.40;;;;;;5075362;28;20162;-75
2021/12/30 01:41:14;;;;;;;20.08;6.05;;;12.50;88.40;;;;;;5075090;28;20031;-75
2021/12/30 01:43:40;;;;;;;21.13;6.55;;;12.50;88.40;;;;;;5075843;28;20509;-75
2021/12/30 01:46:09;;;;;;;21.52;7.13;;;12.50;88.40;;;;;;5081586;28;20042;-75
2021/12/30 01:48:35;;;;;;;22.48;7.45;;;12.50;88.40;;;;;;5092005;28;20031;-75
2021/12/30 01:51:02;;;;;;;20.63;6.85;;;12.50;88.50;;;;;;5079528;28;20365;-75
2021/12/30 01:53:28;;;;;;;16.92;7.32;;;12.60;88.50;;;;;;5075807;28;20037;-74
2021/12/30 01:55:53;;;;;;;19.33;8.07;;;12.60;88.50;;;;;;5074881;28;20028;-75
2021/12/30 01:58:20;;;;;;;21.20;6.57;;;12.60;88.50;;;;;;5059273;28;20369;-75
2021/12/30 02:00:48;;;;;;;22.30;7.57;;;12.60;88.50;;;;;;5075264;28;20419;-75
2021/12/30 02:03:14;;;;;;;20.17;7.72;;;12.60;88.50;;;;;;5075472;28;20143;-75
2021/12/30 02:05:41;;;;;;;18.42;7.28;;;12.60;88.60;;;;;;5058460;28;20495;-74
2021/12/30 02:08:10;;;;;;;23.48;7.80;;;12.60;88.60;;;;;;5078659;28;20365;-76
2021/12/30 02:10:35;;;;;;;22.98;8.82;;;12.60;88.70;;;;;;5082026;28;20024;-75
2021/12/30 02:13:01;;;;;;;21.73;8.85;;;12.60;88.70;;;;;;5075541;28;20190;-74
2021/12/30 02:15:27;;;;;;;21.13;9.98;;;12.70;88.80;;;;;;5075416;28;20376;-75
2021/12/30 02:17:54;;;;;;;24.95;9.27;;;12.70;88.80;;;;;;5076007;28;20078;-74
2021/12/30 02:20:41;;;;;;;28.25;9.40;;;12.70;88.80;;;;;;5075124;28;20119;-75
2021/12/30 02:23:07;;;;;;;25.25;8.80;;;12.70;88.80;;;;;;5074018;28;20349;-75
2021/12/30 02:25:33;;;;;;;23.83;9.30;;;12.70;88.90;;;;;;5071608;28;20418;-75
2021/12/30 02:27:59;;;;;;;19.63;9.57;;;12.70;88.90;;;;;;5074739;28;20056;-75
2021/12/30 02:30:25;;;;;;;32.67;10.63;;;12.70;88.90;;;;;;5074667;28;20369;-75
2021/12/30 02:32:50;;;;;;;21.77;9.07;;;12.70;89.00;;;;;;5074281;28;20075;-75
2021/12/30 02:35:16;;;;;;;27.60;9.98;;;12.70;89.00;;;;;;5074452;28;20032;-75
2021/12/30 02:37:41;;;;;;;28.98;9.85;;;12.80;89.10;;;;;;5074020;28;20028;-75
2021/12/30 02:40:08;;;;;;;29.02;10.60;;;12.80;89.20;;;;;;5073835;28;20087;-75
2021/12/30 02:42:33;;;;;;;28.00;10.48;;;12.80;89.20;;;;;;5074977;28;20046;-75
2021/12/30 02:44:59;;;;;;;28.83;10.38;;;12.70;89.20;;;;;;5073795;28;20453;-75
2021/12/30 02:47:25;;;;;;;27.10;9.88;;;12.80;89.30;;;;;;5074110;28;20024;-74
2021/12/30 02:49:50;;;;;;;27.38;10.52;;;12.80;89.40;;;;;;5074865;28;20099;-75
2021/12/30 02:52:16;;;;;;;25.38;10.57;;;12.80;89.40;;;;;;5073674;28;20412;-75
2021/12/30 02:54:42;;;;;;;31.70;10.95;;;12.80;89.40;;;;;;5074020;28;20024;-75
2021/12/30 02:57:09;;;;;;;24.88;10.30;;;12.80;89.50;;;;;;5074281;28;20040;-75
2021/12/30 02:59:35;;;;;;;26.40;9.80;;;12.80;89.60;;;;;;5074284;28;20075;-75
2021/12/30 03:02:00;;;;;;;28.15;11.07;;;12.80;89.60;;;;;;5055012;28;20056;-75
2021/12/30 03:04:26;;;;;;;27.00;10.18;;;12.80;89.60;;;;;;5073949;28;20036;-75
2021/12/30 03:06:53;;;;;;;29.65;10.02;;;12.80;89.60;;;;;;5074888;28;20123;-74
2021/12/30 03:09:19;;;;;;;25.80;10.57;;;12.80;89.70;;;;;;5073364;28;20029;-75
2021/12/30 03:11:44;;;;;;;26.40;9.73;;;12.80;89.70;;;;;;5073644;28;20040;-75
2021/12/30 03:14:10;;;;;;;25.38;9.55;;;12.80;89.80;;;;;;5054498;28;20025;-75
2021/12/30 03:16:37;;;;;;;23.13;9.88;;;12.80;89.80;;;;;;5037500;28;20025;-75
2021/12/30 03:19:04;;;;;;;27.15;10.40;;;12.80;89.80;;;;;;5056589;28;20041;-75
2021/12/30 03:21:30;;;;;;;32.53;11.88;;;12.80;89.90;;;;;;5040837;28;20112;-74
2021/12/30 03:23:58;;;;;;;26.45;11.40;;;12.80;89.90;;;;;;5059422;28;20036;-75
2021/12/30 03:26:25;;;;;;;29.30;11.18;;;12.80;90.00;;;;;;5054035;28;20434;-75
2021/12/30 03:28:51;;;;;;;29.52;11.48;;;12.80;90.00;;;;;;5054942;28;20028;-74
2021/12/30 03:31:19;;;;;;;26.08;10.63;;;12.80;90.00;;;;;;5057716;28;20029;-75
2021/12/30 03:33:45;;;;;;;27.25;11.15;;;12.80;90.00;;;;;;5057525;28;20025;-75
2021/12/30 03:36:12;;;;;;;23.55;11.40;;;12.80;90.00;;;;;;5053343;28;20076;-74
2021/12/30 03:38:41;;;;;;;26.70;11.35;;;12.80;90.00;;;;;;5056251;28;20048;-75
2021/12/30 03:41:08;;;;;;;24.77;13.18;;;12.80;90.00;;;;;;5057197;28;20119;-75
2021/12/30 03:43:35;;;;;;;22.65;12.63;;;12.80;90.00;;;;;;5060239;28;20036;-74
2021/12/30 03:46:00;;;;;;;26.67;11.80;;;12.80;90.00;;;;;;5061652;28;20039;-74
2021/12/30 03:48:32;;;;;;;24.17;11.48;;;12.80;90.00;;;;;;5055767;28;20364;-74
2021/12/30 03:51:04;;;;;;;23.30;11.13;;;12.80;90.00;;;;;;5053017;28;20029;-75
2021/12/30 03:53:30;;;;;;;25.75;11.23;;;12.80;90.00;;;;;;5060493;28;20055;-75
2021/12/30 03:55:56;;;;;;;21.85;11.10;;;12.80;90.10;;;;;;5052779;28;20025;-75
2021/12/30 03:58:21;;;;;;;23.33;11.93;;;12.90;90.10;;;;;;5052080;28;20029;-75
2021/12/30 04:00:47;;;;;;;19.75;11.23;;;12.90;90.10;;;;;;5035167;28;20109;-74
2021/12/30 04:03:13;;;;;;;24.92;13.27;;;12.90;90.10;;;;;;5061239;28;20025;-74
2021/12/30 04:05:38;;;;;;;24.45;11.20;;;12.90;90.40;;;;;;5055885;28;20474;-74
2021/12/30 04:08:07;;;;;;;22.40;11.50;;;12.90;90.10;;;;;;5053976;28;20025;-75
2021/12/30 04:10:33;;;;;;;21.63;11.43;;;12.90;90.10;;;;;;5051886;28;20025;-75
2021/12/30 04:12:59;;;;;;;23.95;11.90;;;12.90;90.10;;;;;;5058228;28;20028;-75
2021/12/30 04:15:25;;;;;;;18.77;10.20;;;12.90;90.20;;;;;;5056731;28;20025;-74
2021/12/30 04:17:50;;;;;;;25.08;11.05;;;12.90;90.20;;;;;;5057029;28;20045;-74
2021/12/30 04:20:16;;;;;;;19.40;10.43;;;12.90;90.20;;;;;;5052929;28;20029;-74
2021/12/30 04:22:43;;;;;;;26.55;10.88;;;12.90;90.20;;;;;;5058756;28;20048;-75
2021/12/30 04:25:12;;;;;;;20.27;10.50;;;13.00;90.20;;;;;;5043932;28;20057;-74
2021/12/30 04:27:41;;;;;;;20.85;10.38;;;13.00;90.20;;;;;;5051582;28;20358;-75
2021/12/30 04:30:09;;;;;;;17.95;10.63;;;13.00;90.20;;;;;;5065828;28;20024;-75
2021/12/30 04:32:36;;;;;;;19.15;10.63;;;13.00;90.20;;;;;;5057205;28;20045;-75
2021/12/30 04:35:03;;;;;;;20.00;9.45;;;13.00;90.20;;;;;;5043013;28;20120;-75
2021/12/30 04:37:29;;;;;;;20.25;10.48;;;13.10;90.20;;;;;;5053787;28;20024;-74
2021/12/30 04:39:55;;;;;;;21.27;10.82;;;13.10;90.30;;;;;;5044825;28;20094;-74
2021/12/30 04:42:20;;;;;;;21.02;10.27;;;13.00;90.20;;;;;;5065619;28;20024;-74
2021/12/30 04:44:48;;;;;;;19.63;10.25;;;13.10;90.30;;;;;;5071108;28;20103;-74
2021/12/30 04:47:14;;;;;;;16.02;9.25;;;13.10;90.30;;;;;;5070902;28;20545;-74
2021/12/30 04:49:41;;;;;;;21.15;9.75;;;13.10;90.30;;;;;;5059032;28;20112;-74
2021/12/30 04:52:09;;;;;;;17.48;9.70;;;13.10;90.30;;;;;;5069831;28;20028;-74
2021/12/30 04:54:35;;;;;;;15.60;9.00;;;13.10;90.30;;;;;;5074431;28;20028;-74
2021/12/30 04:57:00;;;;;;;15.93;9.43;;;13.10;90.40;;;;;;5059288;28;20031;-73
2021/12/30 04:59:26;;;;;;;16.27;8.07;;;13.10;90.40;;;;;;5062218;28;20504;-73
2021/12/30 05:01:52;;;;;;;14.65;7.72;;;13.10;90.40;;;;;;5049462;28;20048;-73
2021/12/30 05:04:17;;;;;;;14.63;8.77;;;13.20;90.40;;;;;;5052650;28;20032;-73
2021/12/30 05:06:43;;;;;;;12.15;6.82;;;13.20;90.40;;;;;;5068349;28;20028;-73
2021/12/30 05:09:09;;;;;;;14.15;7.47;;;13.20;90.40;;;;;;5050120;28;20020;-73
2021/12/30 05:11:39;;;;;;;12.50;7.30;;;13.20;90.50;;;;;;5076236;28;20107;-73
2021/12/30 05:14:04;;;;;;;11.65;5.93;;;13.20;90.50;;;;;;5073327;28;20449;-74
2021/12/30 05:16:30;;;;;;;12.52;6.68;;;13.20;90.50;;;;;;5058521;28;20028;-74
2021/12/30 05:18:57;;;;;;;13.27;6.65;;;13.20;90.60;;;;;;5075686;28;20402;-73
2021/12/30 05:21:23;;;;;;;11.82;6.80;;;13.20;90.60;;;;;;5076058;28;20039;-73
2021/12/30 05:23:50;;;;;;;13.50;6.75;;;13.20;90.60;;;;;;5058925;28;20115;-73
2021/12/30 05:26:16;;;;;;;11.20;6.50;;;13.20;90.60;;;;;;5076397;28;20035;-73
2021/12/30 05:28:43;;;;;;;12.02;6.03;;;13.20;90.60;;;;;;5075614;28;20062;-73
2021/12/30 05:31:08;;;;;;;13.15;6.43;;;13.20;90.60;;;;;;5055895;28;20140;-73
2021/12/30 05:33:34;;;;;;;12.27;5.85;;;13.20;90.60;;;;;;5052463;28;20115;-73
2021/12/30 05:36:00;;;;;;;8.73;4.57;;;13.20;90.60;;;;;;5058560;28;20056;-73
2021/12/30 05:38:25;;;;;;;9.07;5.13;;;13.20;90.60;;;;;;5075617;28;20067;-73
2021/12/30 05:40:51;;;;;;;10.48;5.10;;;13.20;90.60;;;;;;5075499;28;20089;-73
2021/12/30 05:43:17;;;;;;;8.57;4.82;;;13.20;90.70;;;;;;5075388;28;20457;-74
2021/12/30 05:45:43;;;;;;;10.43;5.57;;;13.20;90.70;;;;;;5075662;28;20033;-74
2021/12/30 05:48:08;;;;;;;7.90;4.35;;;13.30;90.70;;;;;;5075214;28;20059;-74
2021/12/30 05:50:35;;;;;;;8.60;4.38;;;13.30;90.70;;;;;;5074925;28;20020;-73
2021/12/30 05:53:01;;;;;;;7.78;3.70;;;13.30;90.70;;;;;;5075361;28;20025;-73
2021/12/30 05:55:28;;;;;;;8.40;4.20;;;13.30;90.70;;;;;;5076062;28;20477;-73
2021/12/30 05:57:56;;;;;;;8.65;4.18;;;13.30;91.00;;;;;;5057877;28;20483;-73
2021/12/30 06:00:25;;;;;;;8.50;4.22;;;13.30;90.70;;;;;;5074859;28;20119;-73
2021/12/30 06:02:51;;;;;;;8.52;4.45;;;13.30;90.70;;;;;;5074748;28;20024;-73
2021/12/30 06:05:17;;;;;;;8.45;4.53;;;13.30;90.70;;;;;;5074753;28;20123;-73
2021/12/30 06:07:44;;;;;;;8.82;5.32;;;13.30;91.00;;;;;;5075453;28;20044;-74
2021/12/30 06:10:10;;;;;;;10.23;5.60;;;13.30;90.70;;;;;;5074781;28;20479;-74
2021/12/30 06:12:36;;;;;;;10.40;5.60;;;13.30;90.70;;;;;;5058431;28;20107;-73
2021/12/30 06:15:02;;;;;;;10.30;6.53;;;13.30;90.70;;;;;;5075611;28;20464;-73
2021/12/30 06:17:28;;;;;;;11.23;6.65;;;13.30;90.70;;;;;;5075046;28;20037;-73
2021/12/30 06:19:53;;;;;;;11.82;6.55;;;13.30;90.70;;;;;;5074426;28;20043;-73
2021/12/30 06:22:19;;;;;;;10.35;7.18;;;13.40;90.80;;;;;;5074631;28;20035;-73
2021/12/30 06:24:44;;;;;;;11.18;7.53;;;13.40;90.80;;;;;;5075340;28;20025;-73
2021/12/30 06:27:10;;;;;;;12.43;8.18;;;13.40;90.80;;;;;;5074120;28;20086;-74
2021/12/30 06:29:37;;;;;;;12.50;8.77;;;13.40;90.80;;;;;;5075153;28;20457;-70
2021/12/30 06:32:06;;;;;;;14.35;8.95;;;13.40;90.80;;;;;;5057716;28;20041;-71
2021/12/30 06:34:32;;;;;;;13.02;9.38;;;13.40;90.80;;;;;;5072313;28;20088;-74
2021/12/30 06:36:58;;;;;;;17.42;10.18;;;13.40;90.80;;;;;;5073128;28;20051;-72
2021/12/30 06:39:24;;;;;;;16.17;11.48;;;13.40;90.70;;;;;;5072163;28;20433;-72
2021/12/30 06:41:49;;;;;;;15.43;11.73;;;13.40;90.70;;;;;;5074238;28;20314;-72
2021/12/30 06:44:15;;;;;;;16.38;11.68;;;13.40;90.70;;;;;;5074483;28;20028;-73
2021/12/30 06:46:51;;;;;;;17.67;11.82;;;13.40;90.70;;;;;;5055541;28;20036;-72
2021/12/30 06:49:17;;;;;;;16.77;11.07;;;13.40;90.80;;;;;;5071803;28;20035;-73
2021/12/30 06:51:43;;;;;;;14.73;9.93;;;13.50;90.80;;;;;;5073038;28;20016;-74
2021/12/30 06:54:08;;;;;;;13.13;9.52;;;13.50;90.80;;;;;;5074068;28;20021;-74
2021/12/30 06:56:35;;;;;;;13.32;7.70;;;13.50;90.80;;;;;;5074195;28;20032;-73
2021/12/30 06:59:02;;;;;;;11.23;7.30;;;13.50;90.80;;;;;;5057419;28;20543;-72
2021/12/30 07:01:31;;;;;;;10.70;6.35;;;13.50;90.80;;;;;;5074328;28;20127;-72
2021/12/30 07:03:57;;;;;;;10.70;5.78;;;13.40;90.80;;;;;;5074056;28;20522;-73
2021/12/30 07:06:22;;;;;;;9.57;5.15;;;13.40;90.80;;;;;;5057816;28;20032;-73
2021/12/30 07:08:48;;;;;;;7.82;4.63;;;13.40;90.80;;;;;;5074497;28;20032;-72
2021/12/30 07:11:14;;;;;;;7.75;4.30;;;13.40;90.80;;;;;;5076013;28;20016;-72
2021/12/30 07:13:40;;;;;;;9.70;4.80;;;13.40;90.80;;;;;;5077434;28;20090;-73
2021/12/30 07:16:06;;;;;;;8.68;4.47;;;13.40;90.80;;;;;;5079349;28;20436;-71
2021/12/30 07:18:33;;;;;;;9.35;4.60;;;13.40;90.80;;;;;;5075796;28;20037;-72
2021/12/30 07:20:58;;;;;;;7.80;3.92;;;13.40;90.80;;;;;;5075113;28;20391;-73
2021/12/30 07:23:24;;;;;;;7.55;3.90;;;13.40;90.90;;;;;;5089145;28;20031;-73
2021/12/30 07:25:50;;;;;;;7.15;3.90;;;13.40;90.90;;;;;;5074672;28;20025;-73
2021/12/30 07:28:15;;;;;;;8.88;4.80;;;13.40;90.90;;;;;;5075166;28;20162;-72
2021/12/30 07:30:41;;;;;;;8.63;4.75;;;13.40;90.80;;;;;;5074617;28;20025;-73
2021/12/30 07:33:07;;;;;;;9.23;4.88;;;13.40;90.80;;;;;;5074054;28;20570;-73
2021/12/30 07:35:35;;;;;;;10.25;5.93;;;13.40;90.80;;;;;;5073477;28;20020;-71
2021/12/30 07:38:01;;;;;;;10.88;5.88;;;13.40;90.80;;;;;;5076321;28;20516;-72
2021/12/30 07:40:26;;;;;;;11.20;6.25;;;13.50;90.80;;;;;;5073683;28;20453;-71
2021/12/30 07:42:52;;;;;;;11.93;6.97;;;13.50;90.80;;;;;;5056836;28;20078;-71
2021/12/30 07:45:18;;;;;;;13.25;7.00;;;13.50;90.80;;;;;;5078185;28;20044;-72
2021/12/30 07:47:43;;;;;;;12.68;7.20;;;13.50;90.80;;;;;;5076526;28;20028;-71
2021/12/30 07:50:10;;;;;;;11.77;7.53;;;13.50;90.80;;;;;;5078005;28;20035;-72
2021/12/30 07:52:37;;;;;;;11.95;6.93;;;13.50;90.80;;;;;;5074995;28;20024;-70
2021/12/30 07:55:05;;;;;;;13.63;8.25;;;13.50;90.80;;;;;;5073484;28;20028;-71
2021/12/30 07:57:30;;;;;;;13.52;8.27;;;13.60;90.80;;;;;;5074573;28;20036;-70
2021/12/30 07:59:56;;;;;;;14.15;9.80;;;13.50;90.80;;;;;;5057242;28;20167;-70
2021/12/30 08:02:23;;;;;;;14.73;9.32;;;13.50;90.80;;;;;;5073821;28;20036;-72
2021/12/30 08:04:49;;;;;;;14.50;9.45;;;13.60;90.80;;;;;;5073966;28;20025;-73
2021/12/30 08:07:21;;;;;;;15.32;10.35;;;13.60;90.80;;;;;;5072730;28;20038;-73
2021/12/30 08:09:47;;;;;;;14.05;9.35;;;13.60;90.80;;;;;;5074103;28;20032;-73
2021/12/30 08:12:13;;;;;;;14.07;9.45;;;13.70;90.80;;;;;;5056284;28;20056;-73
2021/12/30 08:14:39;;;;;;;17.00;9.63;;;13.70;90.70;;;;;;5073147;28;20169;-73
2021/12/30 08:17:04;;;;;;;14.95;8.88;;;13.70;90.70;;;;;;5072064;28;20461;-74
2021/12/30 08:19:30;;;;;;;14.02;8.57;;;13.80;90.70;;;;;;5073475;28;20043;-74
2021/12/30 08:21:56;;;;;;;14.68;9.10;;;13.80;90.70;;;;;;5077864;28;20037;-74
2021/12/30 08:24:21;;;;;;;14.68;8.20;;;13.90;90.70;;;;;;5077128;28;20117;-75
2021/12/30 08:26:48;;;;;;;14.05;8.70;;;13.90;90.70;;;;;;5077572;28;20043;-73
2021/12/30 08:29:15;;;;;;;13.45;7.60;;;13.90;90.70;;;;;;5077163;28;20020;-74
2021/12/30 08:31:41;;;;;;;11.02;6.97;;;13.90;90.70;;;;;;5077344;28;20040;-73
2021/12/30 08:34:06;;;;;;;13.60;7.22;;;13.90;90.60;;;;;;5077084;28;20082;-74
2021/12/30 08:36:32;;;;;;;11.57;6.80;;;14.00;90.60;;;;;;5076660;28;20067;-74
2021/12/30 08:38:58;;;;;;;10.73;6.47;;;14.00;90.60;;;;;;5060240;28;20035;-73
2021/12/30 08:41:24;;;;;;;11.63;6.50;;;14.00;90.60;;;;;;5077127;28;20028;-74
2021/12/30 08:43:50;;;;;;;11.00;6.65;;;14.00;90.60;;;;;;5077784;28;20024;-73
2021/12/30 08:46:16;;;;;;;10.40;6.57;;;14.00;90.60;;;;;;5049846;28;20028;-74
2021/12/30 08:48:41;;;;;;;9.55;5.72;;;14.00;90.60;;;;;;5077420;28;20410;-74
2021/12/30 08:51:07;;;;;;;10.93;6.28;;;14.00;90.60;;;;;;5076102;28;20032;-73
2021/12/30 08:53:40;;;;;;;10.63;6.20;;;14.10;90.60;;;;;;5075998;28;20048;-73
2021/12/30 08:56:06;;;;;;;10.20;6.38;;;14.10;90.60;;;;;;5076999;28;20470;-73
2021/12/30 08:58:31;;;;;;;9.90;5.57;;;14.10;90.50;;;;;;5059414;28;20048;-72
2021/12/30 09:00:57;;;;;;;10.80;5.95;;;14.10;90.50;;;;;;5059666;28;20464;-72
2021/12/30 09:03:23;;;;;;;8.77;5.28;;;14.10;90.50;;;;;;5076954;28;20028;-72
2021/12/30 09:05:48;;;;;;;12.55;6.20;;;14.10;90.50;;;;;;5077821;28;20482;-72
2021/12/30 09:08:14;;;;;;;10.90;6.38;;;14.10;90.50;;;;;;5077807;28;20031;-72
2021/12/30 09:10:45;;;;;;;11.10;6.25;;;14.10;90.50;;;;;;5077300;28;20142;-72
2021/12/30 09:13:14;;;;;;;12.55;6.53;;;14.20;90.40;;;;;;5077973;28;20445;-73
2021/12/30 09:15:41;;;;;;;10.32;6.78;;;14.20;90.40;;;;;;5077276;28;20469;-72
2021/12/30 09:18:07;;;;;;;11.10;5.90;;;14.20;90.40;;;;;;5077278;28;20119;-72
2021/12/30 09:20:35;;;;;;;10.65;6.20;;;14.20;90.40;;;;;;5060378;28;20025;-72
2021/12/30 09:23:03;;;;;;;10.20;5.90;;;14.20;90.40;;;;;;5077502;28;20419;-72
2021/12/30 09:25:29;;;;;;;12.90;6.18;;;14.20;90.30;;;;;;5059945;28;20036;-72
2021/12/30 09:27:55;;;;;;;12.90;6.25;;;14.20;90.30;;;;;;5077557;28;20395;-72
2021/12/30 09:30:22;;;;;;;10.63;5.30;;;14.20;90.30;;;;;;5076153;28;20025;-72
2021/12/30 09:32:49;;;;;;;10.20;5.45;;;14.20;90.30;;;;;;5077369;28;20449;-72
2021/12/30 09:35:16;;;;;;;9.43;5.15;;;14.20;90.30;;;;;;5076583;28;20078;-72
2021/12/30 09:37:42;;;;;;;10.40;4.93;;;14.30;90.30;;;;;;5077052;28;20017;-71
2021/12/30 09:40:14;;;;;;;8.45;4.60;;;14.30;90.20;;;;;;5054696;28;20044;-71
2021/12/30 09:42:45;;;;;;;9.77;4.90;;;14.30;90.20;;;;;;5058116;28;20025;-74
2021/12/30 09:45:11;;;;;;;14.43;4.68;;;14.30;90.20;;;;;;5075614;28;20520;-71
2021/12/30 09:47:44;;;;;;;9.13;4.28;;;14.30;90.20;;;;;;5077434;28;20441;-72
2021/12/30 09:50:09;;;;;;;10.73;4.10;;;14.30;90.20;;;;;;5076223;28;20033;-72
2021/12/30 09:52:35;;;;;;;12.10;4.65;;;14.30;90.20;;;;;;5060036;28;20337;-72
2021/12/30 09:55:01;;;;;;;8.05;3.85;;;14.30;90.20;;;;;;5074779;28;20024;-71
2021/12/30 09:57:27;;;;;;;8.85;4.20;;;14.30;90.10;;;;;;5058006;28;20424;-71
2021/12/30 09:59:53;;;;;;;9.52;3.70;;;14.30;90.40;;;;;;5074933;28;20032;-72
2021/12/30 10:02:20;;;;;;;9.93;3.70;;;14.40;90.10;;;;;;5076579;28;20037;-72
2021/12/30 10:04:45;;;;;;;7.53;3.17;;;14.40;90.00;;;;;;5075917;28;20024;-72
2021/12/30 10:07:20;;;;;;;8.98;3.92;;;14.50;90.00;;;;;;5075275;28;20032;-72
2021/12/30 10:09:52;;;;;;;10.85;4.15;;;14.50;89.90;;;;;;5075049;28;20055;-73
2021/12/30 10:12:44;;;;;;;9.40;3.25;;;14.50;89.80;;;;;;5076132;28;20104;-71
2021/12/30 10:15:10;;;;;;;6.88;2.65;;;14.60;89.70;;;;;;5068068;28;20692;-72
2021/12/30 10:17:35;;;;;;;8.60;3.20;;;14.60;89.70;;;;;;5073969;28;20335;-71
2021/12/30 10:20:24;;;;;;;9.93;3.20;;;14.60;89.60;;;;;;5056975;28;20047;-72
2021/12/30 10:22:50;;;;;;;10.00;3.13;;;14.60;89.60;;;;;;5072376;28;20024;-71
2021/12/30 10:25:36;;;;;;;8.13;2.55;;;14.60;89.60;;;;;;5072625;28;20024;-71
2021/12/30 10:28:27;;;;;;;10.10;3.30;;;14.60;89.50;;;;;;5054420;28;20038;-72
2021/12/30 10:30:59;;;;;;;8.63;2.47;;;14.60;89.50;;;;;;5072428;28;20037;-72
2021/12/30 10:33:28;;;;;;;10.30;2.80;;;14.60;89.50;;;;;;5053586;28;20025;-73
2021/12/30 10:35:54;;;;;;;10.45;3.03;;;14.60;89.50;;;;;;5055851;28;20357;-73
2021/12/30 10:38:21;;;;;;;9.05;3.38;;;14.60;89.50;;;;;;5075162;28;20465;-73
2021/12/30 10:40:52;;;;;;;9.20;3.03;;;14.60;89.40;;;;;;5071941;28;20086;-73
2021/12/30 10:43:27;;;;;;;8.95;3.00;;;14.60;89.30;;;;;;5072086;28;20085;-75
2021/12/30 10:46:01;;;;;;;9.05;2.97;;;14.70;89.30;;;;;;5072913;28;20025;-73
2021/12/30 10:48:26;;;;;;;8.88;3.22;;;14.60;89.20;;;;;;5052371;28;20052;-69
2021/12/30 10:51:19;;;;;;;10.35;3.85;;;14.70;89.20;;;;;;5083204;28;20058;-72
2021/12/30 10:53:45;;;;;;;10.50;3.47;;;14.70;89.00;;;;;;5085661;28;20023;-71
2021/12/30 10:56:31;;;;;;;11.10;3.90;;;14.70;89.00;;;;;;5074296;28;20052;-72
2021/12/30 10:59:42;;;;;;;12.43;4.43;;;14.70;88.90;;;;;;5075192;28;20036;-68
2021/12/30 11:02:16;;;;;;;8.63;4.18;;;14.70;88.70;;;;;;5032232;28;20033;-70
2021/12/30 11:04:54;;;;;;;11.40;4.03;;;14.80;88.80;;;;;;5035654;28;20037;-71
2021/12/30 11:07:25;;;;;;;8.63;4.03;;;14.80;88.70;;;;;;5035036;28;20347;-67
2021/12/30 11:09:58;;;;;;;16.17;5.45;;;14.80;88.60;;;;;;5048871;28;20037;-69
2021/12/30 11:12:29;;;;;;;9.48;4.50;;;14.80;88.40;;;;;;5024618;28;20529;-72
2021/12/30 11:14:56;;;;;;;9.18;4.45;;;14.80;88.40;;;;;;5023105;28;20033;-68
2021/12/30 11:17:33;;;;;;;12.80;4.32;;;14.80;88.40;;;;;;5052653;28;20039;-74
2021/12/30 11:20:02;;;;;;;11.60;4.63;;;14.80;88.30;;;;;;5033524;28;20135;-75
2021/12/30 11:22:32;;;;;;;11.48;4.13;;;14.80;88.20;;;;;;5045419;28;20141;-73
2021/12/30 11:25:00;;;;;;;11.35;4.03;;;14.80;88.20;;;;;;5033741;28;20040;-77
2021/12/30 11:27:28;;;;;;;11.15;4.10;;;14.80;88.20;;;;;;5009867;28;20507;-76
2021/12/30 11:29:59;;;;;;;10.70;3.80;;;14.80;88.10;;;;;;5045319;28;20052;-71
2021/12/30 11:32:28;;;;;;;10.05;3.97;;;14.80;88.10;;;;;;5055499;28;20040;-71
2021/12/30 11:34:55;;;;;;;10.70;4.63;;;14.80;88.00;;;;;;5072633;28;20070;-70
2021/12/30 11:37:21;;;;;;;12.65;4.53;;;14.80;88.00;;;;;;5055428;28;20025;-69
2021/12/30 11:39:53;;;;;;;11.30;4.55;;;14.80;87.90;;;;;;5072416;28;20056;-73
2021/12/30 11:42:47;;;;;;;8.80;3.95;;;14.80;87.90;;;;;;5055265;28;21280;-75
2021/12/30 11:45:36;;;;;;;10.50;3.80;;;14.80;87.80;;;;;;5070721;28;20078;-72
2021/12/30 11:48:05;;;;;;;11.27;3.75;;;14.80;87.70;;;;;;5072829;28;20103;-73
2021/12/30 11:50:35;;;;;;;9.82;3.40;;;14.80;87.80;;;;;;5069900;28;20017;-73
2021/12/30 11:53:07;;;;;;;8.65;2.88;;;14.80;87.80;;;;;;5072463;28;20034;-73
2021/12/30 11:55:41;;;;;;;9.90;3.20;;;14.80;87.70;;;;;;5055460;28;20369;-73
2021/12/30 11:58:34;;;;;;;6.03;3.10;;;14.90;87.70;;;;;;5070851;28;20472;-71
2021/12/30 12:01:27;;;;;;;9.35;2.88;;;14.90;87.70;;;;;;5071692;28;20032;-71
2021/12/30 12:03:53;;;;;;;9.63;3.45;;;14.90;87.70;;;;;;5073587;28;20028;-70
2021/12/30 12:06:25;;;;;;;10.05;2.70;;;14.90;87.70;;;;;;5072707;28;20438;-72
2021/12/30 12:09:29;;;;;;;10.15;2.92;;;14.90;87.60;;;;;;5075240;28;20020;-71
2021/12/30 12:12:10;;;;;;;8.10;2.72;;;14.90;87.60;;;;;;5068100;28;20131;-72
2021/12/30 12:14:46;;;;;;;10.17;3.27;;;14.90;87.60;;;;;;5072773;28;20457;-69
2021/12/30 12:17:19;;;;;;;10.73;3.55;;;14.90;87.50;;;;;;5071955;28;20064;-69
2021/12/30 12:19:50;;;;;;;10.88;3.38;;;14.90;87.40;;;;;;5072313;28;20028;-70
2021/12/30 12:22:18;;;;;;;9.40;3.20;;;14.90;87.40;;;;;;5072193;28;20068;-72
2021/12/30 12:24:50;;;;;;;11.35;3.40;;;14.90;87.40;;;;;;5069965;28;20046;-72
2021/12/30 12:27:18;;;;;;;;;;;14.90;87.40;;;;;;5072981;28;20027;-71
2021/12/30 12:29:55;;;;;;;8.90;3.17;;;14.90;87.40;;;;;;5071423;28;19956;-71
2021/12/30 12:32:47;;;;;;;8.32;3.25;;;14.90;87.40;;;;;;5071640;28;20094;-72
2021/12/30 12:35:19;;;;;;;7.20;2.95;;;14.90;87.20;;;;;;5071899;28;20039;-72
2021/12/30 12:37:48;;;;;;;8.50;3.05;;;14.90;87.30;;;;;;5055499;28;20036;-72
2021/12/30 12:40:17;;;;;;;13.98;3.85;;;14.90;87.20;;;;;;5072478;28;20142;-69
2021/12/30 12:42:42;;;;;;;10.45;3.90;;;14.90;87.10;;;;;;5070803;28;20486;-72